sensor_id;sensor_type;location;lat;lon;timestamp;temperature;humidity
27188;DHT22;14708;50.872;5.306;2023-12-20T00:00:26;22.90;51.70
27188;DHT22;14708;50.872;5.306;2023-12-20T00:02:51;22.90;51.80
27188;DHT22;14708;50.872;5.306;2023-12-20T00:05:17;22.90;51.70
27188;DHT22;14708;50.872;5.306;2023-12-20T00:07:43;22.90;51.70
27188;DHT22;14708;50.872;5.306;2023-12-20T00:10:08;22.80;51.70
27188;DHT22;14708;50.872;5.306;2023-12-20T00:12:34;22.80;51.70
27188;DHT22;14708;50.872;5.306;2023-12-20T00:15:00;22.80;51.80
27188;DHT22;14708;50.872;5.306;2023-12-20T00:17:25;22.70;51.80
27188;DHT22;14708;50.872;5.306;2023-12-20T00:19:51;22.80;51.90
27188;DHT22;14708;50.872;5.306;2023-12-20T00:22:17;22.70;51.90
27188;DHT22;14708;50.872;5.306;2023-12-20T00:24:42;22.70;51.80
27188;DHT22;14708;50.872;5.306;2023-12-20T00:27:08;22.60;51.80
27188;DHT22;14708;50.872;5.306;2023-12-20T00:29:34;22.70;52.40
27188;DHT22;14708;50.872;5.306;2023-12-20T00:31:59;22.60;51.90
27188;DHT22;14708;50.872;5.306;2023-12-20T00:34:25;22.60;51.80
27188;DHT22;14708;50.872;5.306;2023-12-20T00:36:51;22.60;51.90
27188;DHT22;14708;50.872;5.306;2023-12-20T00:39:16;22.60;51.80
27188;DHT22;14708;50.872;5.306;2023-12-20T00:41:42;22.60;51.80
27188;DHT22;14708;50.872;5.306;2023-12-20T00:44:08;22.50;51.90
27188;DHT22;14708;50.872;5.306;2023-12-20T00:46:33;22.50;51.90
27188;DHT22;14708;50.872;5.306;2023-12-20T00:48:59;22.50;51.90
27188;DHT22;14708;50.872;5.306;2023-12-20T00:51:25;22.40;51.40
27188;DHT22;14708;50.872;5.306;2023-12-20T00:53:50;22.40;51.30
27188;DHT22;14708;50.872;5.306;2023-12-20T00:56:20;22.40;51.50
27188;DHT22;14708;50.872;5.306;2023-12-20T00:58:46;22.40;52.00
27188;DHT22;14708;50.872;5.306;2023-12-20T01:01:11;22.40;52.00
27188;DHT22;14708;50.872;5.306;2023-12-20T01:03:38;22.40;51.40
27188;DHT22;14708;50.872;5.306;2023-12-20T01:06:04;22.30;51.40
27188;DHT22;14708;50.872;5.306;2023-12-20T01:08:30;22.30;51.40
27188;DHT22;14708;50.872;5.306;2023-12-20T01:10:56;22.30;51.50
27188;DHT22;14708;50.872;5.306;2023-12-20T01:13:22;22.30;51.60
27188;DHT22;14708;50.872;5.306;2023-12-20T01:15:47;22.30;51.40
27188;DHT22;14708;50.872;5.306;2023-12-20T01:18:14;22.30;51.50
27188;DHT22;14708;50.872;5.306;2023-12-20T01:20:40;22.20;51.40
27188;DHT22;14708;50.872;5.306;2023-12-20T01:23:06;22.20;51.50
27188;DHT22;14708;50.872;5.306;2023-12-20T01:25:32;22.20;51.50
27188;DHT22;14708;50.872;5.306;2023-12-20T01:27:58;22.20;51.60
27188;DHT22;14708;50.872;5.306;2023-12-20T01:30:24;22.20;51.70
27188;DHT22;14708;50.872;5.306;2023-12-20T01:32:49;22.20;51.60
27188;DHT22;14708;50.872;5.306;2023-12-20T01:35:15;22.10;51.70
27188;DHT22;14708;50.872;5.306;2023-12-20T01:37:41;22.10;51.80
27188;DHT22;14708;50.872;5.306;2023-12-20T01:40:06;22.10;51.70
27188;DHT22;14708;50.872;5.306;2023-12-20T01:42:33;22.10;51.80
27188;DHT22;14708;50.872;5.306;2023-12-20T01:44:59;22.10;51.70
27188;DHT22;14708;50.872;5.306;2023-12-20T01:47:24;22.10;51.70
27188;DHT22;14708;50.872;5.306;2023-12-20T01:49:52;22.10;51.60
27188;DHT22;14708;50.872;5.306;2023-12-20T01:52:19;22.10;51.70
27188;DHT22;14708;50.872;5.306;2023-12-20T01:54:45;22.00;51.70
27188;DHT22;14708;50.872;5.306;2023-12-20T01:57:12;22.00;51.60
27188;DHT22;14708;50.872;5.306;2023-12-20T01:59:39;22.00;51.60
27188;DHT22;14708;50.872;5.306;2023-12-20T02:02:05;22.00;51.70
27188;DHT22;14708;50.872;5.306;2023-12-20T02:04:33;22.00;51.60
27188;DHT22;14708;50.872;5.306;2023-12-20T02:06:59;21.90;51.70
27188;DHT22;14708;50.872;5.306;2023-12-20T02:09:24;22.00;51.90
27188;DHT22;14708;50.872;5.306;2023-12-20T02:11:50;21.90;51.70
27188;DHT22;14708;50.872;5.306;2023-12-20T02:14:16;21.90;51.70
27188;DHT22;14708;50.872;5.306;2023-12-20T02:16:41;21.90;51.60
27188;DHT22;14708;50.872;5.306;2023-12-20T02:19:14;21.90;51.60
27188;DHT22;14708;50.872;5.306;2023-12-20T02:21:40;21.90;51.70
27188;DHT22;14708;50.872;5.306;2023-12-20T02:24:06;21.90;51.90
27188;DHT22;14708;50.872;5.306;2023-12-20T02:26:33;21.80;51.80
27188;DHT22;14708;50.872;5.306;2023-12-20T02:28:59;21.80;51.80
27188;DHT22;14708;50.872;5.306;2023-12-20T02:31:25;21.80;51.70
27188;DHT22;14708;50.872;5.306;2023-12-20T02:33:51;21.80;51.60
27188;DHT22;14708;50.872;5.306;2023-12-20T02:36:16;21.80;51.80
27188;DHT22;14708;50.872;5.306;2023-12-20T02:38:42;21.80;51.80
27188;DHT22;14708;50.872;5.306;2023-12-20T02:41:08;21.80;51.70
27188;DHT22;14708;50.872;5.306;2023-12-20T02:43:33;21.80;51.80
27188;DHT22;14708;50.872;5.306;2023-12-20T02:45:59;21.70;51.70
27188;DHT22;14708;50.872;5.306;2023-12-20T02:48:24;21.70;52.00
27188;DHT22;14708;50.872;5.306;2023-12-20T02:50:50;21.70;51.80
27188;DHT22;14708;50.872;5.306;2023-12-20T02:53:16;21.70;52.00
27188;DHT22;14708;50.872;5.306;2023-12-20T02:55:42;21.70;51.90
27188;DHT22;14708;50.872;5.306;2023-12-20T02:58:08;21.70;52.10
27188;DHT22;14708;50.872;5.306;2023-12-20T03:00:33;21.70;51.90
27188;DHT22;14708;50.872;5.306;2023-12-20T03:02:59;21.60;52.00
27188;DHT22;14708;50.872;5.306;2023-12-20T03:05:25;21.60;51.90
27188;DHT22;14708;50.872;5.306;2023-12-20T03:07:51;21.60;51.80
27188;DHT22;14708;50.872;5.306;2023-12-20T03:10:18;21.60;51.70
27188;DHT22;14708;50.872;5.306;2023-12-20T03:12:44;21.60;51.90
27188;DHT22;14708;50.872;5.306;2023-12-20T03:15:10;21.60;51.70
27188;DHT22;14708;50.872;5.306;2023-12-20T03:17:36;21.60;52.00
27188;DHT22;14708;50.872;5.306;2023-12-20T03:20:02;21.60;51.90
27188;DHT22;14708;50.872;5.306;2023-12-20T03:22:28;21.60;51.80
27188;DHT22;14708;50.872;5.306;2023-12-20T03:24:53;21.50;51.80
27188;DHT22;14708;50.872;5.306;2023-12-20T03:27:19;21.50;51.70
27188;DHT22;14708;50.872;5.306;2023-12-20T03:29:45;21.50;51.70
27188;DHT22;14708;50.872;5.306;2023-12-20T03:32:10;21.50;51.70
27188;DHT22;14708;50.872;5.306;2023-12-20T03:34:36;21.50;51.60
27188;DHT22;14708;50.872;5.306;2023-12-20T03:37:02;21.50;51.50
27188;DHT22;14708;50.872;5.306;2023-12-20T03:39:27;21.50;51.70
27188;DHT22;14708;50.872;5.306;2023-12-20T03:41:53;21.50;51.60
27188;DHT22;14708;50.872;5.306;2023-12-20T03:44:19;21.50;51.70
27188;DHT22;14708;50.872;5.306;2023-12-20T03:46:45;21.50;51.60
27188;DHT22;14708;50.872;5.306;2023-12-20T03:49:11;21.40;51.70
27188;DHT22;14708;50.872;5.306;2023-12-20T03:51:37;21.40;51.60
27188;DHT22;14708;50.872;5.306;2023-12-20T03:54:03;21.50;51.70
27188;DHT22;14708;50.872;5.306;2023-12-20T03:56:29;21.40;51.70
27188;DHT22;14708;50.872;5.306;2023-12-20T03:58:54;21.40;51.70
27188;DHT22;14708;50.872;5.306;2023-12-20T04:01:20;21.40;51.70
27188;DHT22;14708;50.872;5.306;2023-12-20T04:03:46;21.40;51.70
27188;DHT22;14708;50.872;5.306;2023-12-20T04:06:19;21.40;51.70
27188;DHT22;14708;50.872;5.306;2023-12-20T04:08:44;21.40;51.80
27188;DHT22;14708;50.872;5.306;2023-12-20T04:11:10;21.30;51.70
27188;DHT22;14708;50.872;5.306;2023-12-20T04:13:36;21.30;51.70
27188;DHT22;14708;50.872;5.306;2023-12-20T04:16:02;21.30;51.80
27188;DHT22;14708;50.872;5.306;2023-12-20T04:18:27;21.30;51.80
27188;DHT22;14708;50.872;5.306;2023-12-20T04:20:53;21.30;51.70
27188;DHT22;14708;50.872;5.306;2023-12-20T04:23:19;21.30;51.80
27188;DHT22;14708;50.872;5.306;2023-12-20T04:25:45;21.30;51.90
27188;DHT22;14708;50.872;5.306;2023-12-20T04:28:11;21.30;51.80
27188;DHT22;14708;50.872;5.306;2023-12-20T04:30:36;21.30;51.70
27188;DHT22;14708;50.872;5.306;2023-12-20T04:33:02;21.30;51.90
27188;DHT22;14708;50.872;5.306;2023-12-20T04:35:28;21.30;51.90
27188;DHT22;14708;50.872;5.306;2023-12-20T04:37:53;21.20;51.80
27188;DHT22;14708;50.872;5.306;2023-12-20T04:40:19;21.20;51.70
27188;DHT22;14708;50.872;5.306;2023-12-20T04:42:45;21.20;51.60
27188;DHT22;14708;50.872;5.306;2023-12-20T04:45:11;21.20;51.70
27188;DHT22;14708;50.872;5.306;2023-12-20T04:47:38;21.20;51.70
27188;DHT22;14708;50.872;5.306;2023-12-20T04:50:05;21.20;51.60
27188;DHT22;14708;50.872;5.306;2023-12-20T04:52:31;21.20;51.60
27188;DHT22;14708;50.872;5.306;2023-12-20T04:54:56;21.20;51.80
27188;DHT22;14708;50.872;5.306;2023-12-20T04:57:22;21.20;51.50
27188;DHT22;14708;50.872;5.306;2023-12-20T04:59:48;21.20;51.70
27188;DHT22;14708;50.872;5.306;2023-12-20T05:02:14;21.20;51.60
27188;DHT22;14708;50.872;5.306;2023-12-20T05:04:39;21.10;51.70
27188;DHT22;14708;50.872;5.306;2023-12-20T05:07:05;21.10;51.60
27188;DHT22;14708;50.872;5.306;2023-12-20T05:09:31;21.20;51.70
27188;DHT22;14708;50.872;5.306;2023-12-20T05:11:57;21.10;51.70
27188;DHT22;14708;50.872;5.306;2023-12-20T05:14:23;21.20;51.70
27188;DHT22;14708;50.872;5.306;2023-12-20T05:16:48;21.10;51.70
27188;DHT22;14708;50.872;5.306;2023-12-20T05:19:14;21.10;51.80
27188;DHT22;14708;50.872;5.306;2023-12-20T05:21:40;21.10;51.60
27188;DHT22;14708;50.872;5.306;2023-12-20T05:24:05;21.10;51.80
27188;DHT22;14708;50.872;5.306;2023-12-20T05:26:31;21.10;51.80
27188;DHT22;14708;50.872;5.306;2023-12-20T05:28:57;21.10;51.70
27188;DHT22;14708;50.872;5.306;2023-12-20T05:31:22;21.10;51.70
27188;DHT22;14708;50.872;5.306;2023-12-20T05:33:48;21.10;51.70
27188;DHT22;14708;50.872;5.306;2023-12-20T05:36:14;21.00;51.60
27188;DHT22;14708;50.872;5.306;2023-12-20T05:38:40;21.10;51.60
27188;DHT22;14708;50.872;5.306;2023-12-20T05:41:06;21.10;51.80
27188;DHT22;14708;50.872;5.306;2023-12-20T05:43:31;21.00;51.60
27188;DHT22;14708;50.872;5.306;2023-12-20T05:45:58;21.00;51.70
27188;DHT22;14708;50.872;5.306;2023-12-20T05:48:23;21.00;51.70
27188;DHT22;14708;50.872;5.306;2023-12-20T05:50:49;21.00;51.70
27188;DHT22;14708;50.872;5.306;2023-12-20T05:53:15;21.00;51.90
27188;DHT22;14708;50.872;5.306;2023-12-20T05:55:40;21.00;51.80
27188;DHT22;14708;50.872;5.306;2023-12-20T05:58:06;21.00;51.70
27188;DHT22;14708;50.872;5.306;2023-12-20T06:00:31;21.00;51.80
27188;DHT22;14708;50.872;5.306;2023-12-20T06:02:57;21.00;51.70
27188;DHT22;14708;50.872;5.306;2023-12-20T06:05:23;21.00;51.80
27188;DHT22;14708;50.872;5.306;2023-12-20T06:07:48;21.00;51.80
27188;DHT22;14708;50.872;5.306;2023-12-20T06:10:16;21.00;51.80
27188;DHT22;14708;50.872;5.306;2023-12-20T06:12:41;20.90;51.60
27188;DHT22;14708;50.872;5.306;2023-12-20T06:15:07;20.90;51.60
27188;DHT22;14708;50.872;5.306;2023-12-20T06:17:33;20.90;51.50
27188;DHT22;14708;50.872;5.306;2023-12-20T06:20:00;20.90;51.70
27188;DHT22;14708;50.872;5.306;2023-12-20T06:22:26;20.90;51.70
27188;DHT22;14708;50.872;5.306;2023-12-20T06:24:52;20.90;51.50
27188;DHT22;14708;50.872;5.306;2023-12-20T06:27:17;20.90;51.60
27188;DHT22;14708;50.872;5.306;2023-12-20T06:29:43;20.90;51.70
27188;DHT22;14708;50.872;5.306;2023-12-20T06:32:10;20.90;51.70
27188;DHT22;14708;50.872;5.306;2023-12-20T06:34:36;20.80;51.70
27188;DHT22;14708;50.872;5.306;2023-12-20T06:37:01;20.90;51.50
27188;DHT22;14708;50.872;5.306;2023-12-20T06:39:27;20.80;51.60
27188;DHT22;14708;50.872;5.306;2023-12-20T06:41:53;20.80;51.60
27188;DHT22;14708;50.872;5.306;2023-12-20T06:44:19;20.80;51.60
27188;DHT22;14708;50.872;5.306;2023-12-20T06:46:44;20.80;51.70
27188;DHT22;14708;50.872;5.306;2023-12-20T06:49:10;20.80;51.80
27188;DHT22;14708;50.872;5.306;2023-12-20T06:51:36;20.80;51.70
27188;DHT22;14708;50.872;5.306;2023-12-20T06:54:01;20.80;51.70
27188;DHT22;14708;50.872;5.306;2023-12-20T06:56:28;20.80;51.60
27188;DHT22;14708;50.872;5.306;2023-12-20T06:58:53;20.70;50.00
27188;DHT22;14708;50.872;5.306;2023-12-20T07:01:19;20.70;50.10
27188;DHT22;14708;50.872;5.306;2023-12-20T07:03:45;20.70;50.50
27188;DHT22;14708;50.872;5.306;2023-12-20T07:06:11;20.70;50.30
27188;DHT22;14708;50.872;5.306;2023-12-20T07:08:36;20.70;50.40
27188;DHT22;14708;50.872;5.306;2023-12-20T07:11:02;20.70;50.30
27188;DHT22;14708;50.872;5.306;2023-12-20T07:13:28;20.70;50.40
27188;DHT22;14708;50.872;5.306;2023-12-20T07:15:53;20.70;51.00
27188;DHT22;14708;50.872;5.306;2023-12-20T07:18:19;20.70;50.50
27188;DHT22;14708;50.872;5.306;2023-12-20T07:20:45;20.70;50.20
27188;DHT22;14708;50.872;5.306;2023-12-20T07:23:10;20.70;50.10
27188;DHT22;14708;50.872;5.306;2023-12-20T07:25:36;20.70;50.10
27188;DHT22;14708;50.872;5.306;2023-12-20T07:28:02;20.70;50.60
27188;DHT22;14708;50.872;5.306;2023-12-20T07:30:28;20.60;50.90
27188;DHT22;14708;50.872;5.306;2023-12-20T07:32:54;20.70;50.60
27188;DHT22;14708;50.872;5.306;2023-12-20T07:35:19;20.60;50.70
27188;DHT22;14708;50.872;5.306;2023-12-20T07:37:45;20.70;51.10
27188;DHT22;14708;50.872;5.306;2023-12-20T07:40:11;20.70;51.10
27188;DHT22;14708;50.872;5.306;2023-12-20T07:42:36;20.70;51.10
27188;DHT22;14708;50.872;5.306;2023-12-20T07:45:03;20.70;51.10
27188;DHT22;14708;50.872;5.306;2023-12-20T07:47:29;20.80;51.60
27188;DHT22;14708;50.872;5.306;2023-12-20T07:49:55;20.90;51.60
27188;DHT22;14708;50.872;5.306;2023-12-20T07:52:21;21.00;51.90
27188;DHT22;14708;50.872;5.306;2023-12-20T07:54:48;21.10;51.60
27188;DHT22;14708;50.872;5.306;2023-12-20T07:57:13;21.20;51.70
27188;DHT22;14708;50.872;5.306;2023-12-20T07:59:39;21.30;51.50
27188;DHT22;14708;50.872;5.306;2023-12-20T08:02:05;21.40;51.60
27188;DHT22;14708;50.872;5.306;2023-12-20T08:04:32;21.50;51.30
27188;DHT22;14708;50.872;5.306;2023-12-20T08:06:58;21.60;51.20
27188;DHT22;14708;50.872;5.306;2023-12-20T08:09:23;21.60;51.30
27188;DHT22;14708;50.872;5.306;2023-12-20T08:11:49;21.70;51.20
27188;DHT22;14708;50.872;5.306;2023-12-20T08:14:15;21.80;51.10
27188;DHT22;14708;50.872;5.306;2023-12-20T08:16:41;21.80;51.00
27188;DHT22;14708;50.872;5.306;2023-12-20T08:19:07;21.80;50.90
27188;DHT22;14708;50.872;5.306;2023-12-20T08:21:33;21.90;50.70
27188;DHT22;14708;50.872;5.306;2023-12-20T08:23:59;22.00;50.50
27188;DHT22;14708;50.872;5.306;2023-12-20T08:26:26;22.00;50.30
27188;DHT22;14708;50.872;5.306;2023-12-20T08:28:52;22.20;50.20
27188;DHT22;14708;50.872;5.306;2023-12-20T08:31:18;22.20;49.90
27188;DHT22;14708;50.872;5.306;2023-12-20T08:33:45;22.20;49.90
27188;DHT22;14708;50.872;5.306;2023-12-20T08:36:11;22.30;50.00
27188;DHT22;14708;50.872;5.306;2023-12-20T08:38:37;22.30;49.30
27188;DHT22;14708;50.872;5.306;2023-12-20T08:41:03;22.30;49.30
27188;DHT22;14708;50.872;5.306;2023-12-20T08:43:31;22.40;49.10
27188;DHT22;14708;50.872;5.306;2023-12-20T08:45:57;22.40;49.20
27188;DHT22;14708;50.872;5.306;2023-12-20T08:48:22;22.40;49.10
27188;DHT22;14708;50.872;5.306;2023-12-20T08:50:48;22.40;48.90
27188;DHT22;14708;50.872;5.306;2023-12-20T08:53:18;22.50;48.90
27188;DHT22;14708;50.872;5.306;2023-12-20T08:55:43;22.50;49.10
27188;DHT22;14708;50.872;5.306;2023-12-20T08:58:09;22.50;49.10
27188;DHT22;14708;50.872;5.306;2023-12-20T09:00:35;22.50;49.10
27188;DHT22;14708;50.872;5.306;2023-12-20T09:03:04;22.60;49.20
27188;DHT22;14708;50.872;5.306;2023-12-20T09:05:29;22.60;49.20
27188;DHT22;14708;50.872;5.306;2023-12-20T09:07:55;22.60;49.50
27188;DHT22;14708;50.872;5.306;2023-12-20T09:10:21;22.50;49.40
27188;DHT22;14708;50.872;5.306;2023-12-20T09:12:50;22.60;49.20
27188;DHT22;14708;50.872;5.306;2023-12-20T09:15:16;22.60;49.20
27188;DHT22;14708;50.872;5.306;2023-12-20T09:17:42;22.70;49.30
27188;DHT22;14708;50.872;5.306;2023-12-20T09:20:09;22.60;49.40
27188;DHT22;14708;50.872;5.306;2023-12-20T09:22:35;22.60;49.50
27188;DHT22;14708;50.872;5.306;2023-12-20T09:25:01;22.60;49.40
27188;DHT22;14708;50.872;5.306;2023-12-20T09:27:27;22.70;49.50
27188;DHT22;14708;50.872;5.306;2023-12-20T09:29:53;22.70;49.30
27188;DHT22;14708;50.872;5.306;2023-12-20T09:32:19;22.70;49.20
27188;DHT22;14708;50.872;5.306;2023-12-20T09:34:47;22.80;49.20
27188;DHT22;14708;50.872;5.306;2023-12-20T09:37:13;22.80;48.90
27188;DHT22;14708;50.872;5.306;2023-12-20T09:39:39;22.80;48.70
27188;DHT22;14708;50.872;5.306;2023-12-20T09:42:05;22.80;48.80
27188;DHT22;14708;50.872;5.306;2023-12-20T09:44:32;22.80;48.80
27188;DHT22;14708;50.872;5.306;2023-12-20T09:47:05;22.80;48.90
27188;DHT22;14708;50.872;5.306;2023-12-20T09:49:31;22.90;49.10
27188;DHT22;14708;50.872;5.306;2023-12-20T09:51:58;22.90;49.10
27188;DHT22;14708;50.872;5.306;2023-12-20T09:54:26;22.90;49.20
27188;DHT22;14708;50.872;5.306;2023-12-20T09:56:52;22.90;49.30
27188;DHT22;14708;50.872;5.306;2023-12-20T09:59:18;22.90;49.50
27188;DHT22;14708;50.872;5.306;2023-12-20T10:01:44;23.00;49.60
27188;DHT22;14708;50.872;5.306;2023-12-20T10:04:11;23.00;49.40
27188;DHT22;14708;50.872;5.306;2023-12-20T10:06:41;23.00;49.10
27188;DHT22;14708;50.872;5.306;2023-12-20T10:09:07;23.00;48.60
27188;DHT22;14708;50.872;5.306;2023-12-20T10:11:35;23.00;48.50
27188;DHT22;14708;50.872;5.306;2023-12-20T10:14:03;23.00;48.30
27188;DHT22;14708;50.872;5.306;2023-12-20T10:16:30;23.00;48.30
27188;DHT22;14708;50.872;5.306;2023-12-20T10:18:56;23.10;48.40
27188;DHT22;14708;50.872;5.306;2023-12-20T10:21:22;23.10;48.40
27188;DHT22;14708;50.872;5.306;2023-12-20T10:23:49;23.10;48.50
27188;DHT22;14708;50.872;5.306;2023-12-20T10:26:25;23.20;48.40
27188;DHT22;14708;50.872;5.306;2023-12-20T10:28:53;23.10;49.20
27188;DHT22;14708;50.872;5.306;2023-12-20T10:31:33;23.10;48.50
27188;DHT22;14708;50.872;5.306;2023-12-20T10:34:01;23.10;48.60
27188;DHT22;14708;50.872;5.306;2023-12-20T10:36:30;23.10;48.50
27188;DHT22;14708;50.872;5.306;2023-12-20T10:38:56;23.10;48.70
27188;DHT22;14708;50.872;5.306;2023-12-20T10:41:31;23.10;48.70
27188;DHT22;14708;50.872;5.306;2023-12-20T10:44:01;23.20;48.70
27188;DHT22;14708;50.872;5.306;2023-12-20T10:46:29;23.20;48.90
27188;DHT22;14708;50.872;5.306;2023-12-20T10:48:56;23.10;48.80
27188;DHT22;14708;50.872;5.306;2023-12-20T10:51:22;23.10;49.00
27188;DHT22;14708;50.872;5.306;2023-12-20T10:53:50;23.10;48.80
27188;DHT22;14708;50.872;5.306;2023-12-20T10:56:17;23.10;49.00
27188;DHT22;14708;50.872;5.306;2023-12-20T10:58:45;23.10;48.90
27188;DHT22;14708;50.872;5.306;2023-12-20T11:01:15;23.10;48.90
27188;DHT22;14708;50.872;5.306;2023-12-20T11:03:52;23.10;49.00
27188;DHT22;14708;50.872;5.306;2023-12-20T11:06:29;23.20;48.80
27188;DHT22;14708;50.872;5.306;2023-12-20T11:09:14;23.10;48.80
27188;DHT22;14708;50.872;5.306;2023-12-20T11:17:10;23.20;48.80
27188;DHT22;14708;50.872;5.306;2023-12-20T11:22:25;23.20;48.90
27188;DHT22;14708;50.872;5.306;2023-12-20T11:24:52;23.20;48.90
27188;DHT22;14708;50.872;5.306;2023-12-20T11:27:19;23.10;48.80
27188;DHT22;14708;50.872;5.306;2023-12-20T11:30:04;23.10;48.70
27188;DHT22;14708;50.872;5.306;2023-12-20T11:32:34;23.10;48.80
27188;DHT22;14708;50.872;5.306;2023-12-20T11:37:38;23.10;47.20
27188;DHT22;14708;50.872;5.306;2023-12-20T11:40:11;23.00;48.00
27188;DHT22;14708;50.872;5.306;2023-12-20T11:42:49;23.00;48.20
27188;DHT22;14708;50.872;5.306;2023-12-20T11:45:23;23.00;48.30
27188;DHT22;14708;50.872;5.306;2023-12-20T11:47:51;23.00;48.70
27188;DHT22;14708;50.872;5.306;2023-12-20T11:50:20;23.00;49.20
27188;DHT22;14708;50.872;5.306;2023-12-20T11:52:46;22.90;49.60
27188;DHT22;14708;50.872;5.306;2023-12-20T11:55:11;23.00;49.60
27188;DHT22;14708;50.872;5.306;2023-12-20T11:57:37;23.00;50.00
27188;DHT22;14708;50.872;5.306;2023-12-20T12:00:04;23.00;50.20
27188;DHT22;14708;50.872;5.306;2023-12-20T12:02:30;23.00;50.20
27188;DHT22;14708;50.872;5.306;2023-12-20T12:04:56;23.00;50.00
27188;DHT22;14708;50.872;5.306;2023-12-20T12:07:22;23.00;48.60
27188;DHT22;14708;50.872;5.306;2023-12-20T12:09:48;22.90;49.00
27188;DHT22;14708;50.872;5.306;2023-12-20T12:12:14;22.90;49.40
27188;DHT22;14708;50.872;5.306;2023-12-20T12:14:40;23.00;49.80
27188;DHT22;14708;50.872;5.306;2023-12-20T12:17:13;23.00;49.50
27188;DHT22;14708;50.872;5.306;2023-12-20T12:19:39;23.00;49.50
27188;DHT22;14708;50.872;5.306;2023-12-20T12:22:06;23.00;49.60
27188;DHT22;14708;50.872;5.306;2023-12-20T12:24:34;23.00;49.70
27188;DHT22;14708;50.872;5.306;2023-12-20T12:26:59;23.10;49.60
27188;DHT22;14708;50.872;5.306;2023-12-20T12:29:25;23.20;49.50
27188;DHT22;14708;50.872;5.306;2023-12-20T12:31:51;23.20;49.50
27188;DHT22;14708;50.872;5.306;2023-12-20T12:34:19;23.20;49.60
27188;DHT22;14708;50.872;5.306;2023-12-20T12:36:45;23.20;49.70
27188;DHT22;14708;50.872;5.306;2023-12-20T12:39:14;23.30;49.70
27188;DHT22;14708;50.872;5.306;2023-12-20T12:41:42;23.30;49.50
27188;DHT22;14708;50.872;5.306;2023-12-20T12:44:08;23.30;49.60
27188;DHT22;14708;50.872;5.306;2023-12-20T12:46:34;23.30;49.40
27188;DHT22;14708;50.872;5.306;2023-12-20T12:49:00;23.40;49.00
27188;DHT22;14708;50.872;5.306;2023-12-20T12:51:27;23.40;48.80
27188;DHT22;14708;50.872;5.306;2023-12-20T12:53:53;23.40;48.60
27188;DHT22;14708;50.872;5.306;2023-12-20T12:56:20;23.40;48.60
27188;DHT22;14708;50.872;5.306;2023-12-20T12:58:47;23.40;48.50
27188;DHT22;14708;50.872;5.306;2023-12-20T13:01:13;23.40;48.50
27188;DHT22;14708;50.872;5.306;2023-12-20T13:03:39;23.40;48.60
27188;DHT22;14708;50.872;5.306;2023-12-20T13:06:05;23.40;48.70
27188;DHT22;14708;50.872;5.306;2023-12-20T13:08:31;23.40;48.60
27188;DHT22;14708;50.872;5.306;2023-12-20T13:10:57;23.40;47.40
27188;DHT22;14708;50.872;5.306;2023-12-20T13:13:26;23.40;47.50
27188;DHT22;14708;50.872;5.306;2023-12-20T13:15:52;23.40;47.70
27188;DHT22;14708;50.872;5.306;2023-12-20T13:18:20;23.40;47.30
27188;DHT22;14708;50.872;5.306;2023-12-20T13:20:47;23.30;47.20
27188;DHT22;14708;50.872;5.306;2023-12-20T13:23:13;23.30;47.10
27188;DHT22;14708;50.872;5.306;2023-12-20T13:25:39;23.30;47.20
27188;DHT22;14708;50.872;5.306;2023-12-20T13:28:05;23.30;47.20
27188;DHT22;14708;50.872;5.306;2023-12-20T13:30:31;23.30;47.00
27188;DHT22;14708;50.872;5.306;2023-12-20T13:32:57;23.30;47.20
27188;DHT22;14708;50.872;5.306;2023-12-20T13:35:22;23.30;46.90
27188;DHT22;14708;50.872;5.306;2023-12-20T13:37:48;23.30;47.00
27188;DHT22;14708;50.872;5.306;2023-12-20T13:40:14;23.20;47.40
27188;DHT22;14708;50.872;5.306;2023-12-20T13:42:39;23.20;47.00
27188;DHT22;14708;50.872;5.306;2023-12-20T13:45:06;23.20;47.00
27188;DHT22;14708;50.872;5.306;2023-12-20T13:47:32;23.20;46.40
27188;DHT22;14708;50.872;5.306;2023-12-20T13:49:58;23.20;46.60
27188;DHT22;14708;50.872;5.306;2023-12-20T13:52:23;23.20;46.80
27188;DHT22;14708;50.872;5.306;2023-12-20T13:54:49;23.20;46.80
27188;DHT22;14708;50.872;5.306;2023-12-20T13:57:15;23.20;46.80
27188;DHT22;14708;50.872;5.306;2023-12-20T13:59:41;23.20;46.40
27188;DHT22;14708;50.872;5.306;2023-12-20T14:02:06;23.20;46.50
27188;DHT22;14708;50.872;5.306;2023-12-20T14:04:32;23.20;46.80
27188;DHT22;14708;50.872;5.306;2023-12-20T14:06:58;23.10;47.10
27188;DHT22;14708;50.872;5.306;2023-12-20T14:09:24;23.10;45.80
27188;DHT22;14708;50.872;5.306;2023-12-20T14:11:50;23.10;46.30
27188;DHT22;14708;50.872;5.306;2023-12-20T14:14:15;23.10;46.40
27188;DHT22;14708;50.872;5.306;2023-12-20T14:16:41;23.10;46.30
27188;DHT22;14708;50.872;5.306;2023-12-20T14:19:11;23.10;45.90
27188;DHT22;14708;50.872;5.306;2023-12-20T14:21:36;23.10;45.80
27188;DHT22;14708;50.872;5.306;2023-12-20T14:24:02;23.10;46.10
27188;DHT22;14708;50.872;5.306;2023-12-20T14:26:29;23.00;46.10
27188;DHT22;14708;50.872;5.306;2023-12-20T14:28:55;23.00;46.10
27188;DHT22;14708;50.872;5.306;2023-12-20T14:31:21;23.00;46.30
27188;DHT22;14708;50.872;5.306;2023-12-20T14:33:49;23.00;46.60
27188;DHT22;14708;50.872;5.306;2023-12-20T14:36:16;23.00;45.80
27188;DHT22;14708;50.872;5.306;2023-12-20T14:38:43;23.00;46.00
27188;DHT22;14708;50.872;5.306;2023-12-20T14:41:09;23.00;46.20
27188;DHT22;14708;50.872;5.306;2023-12-20T14:43:35;23.00;46.00
27188;DHT22;14708;50.872;5.306;2023-12-20T14:46:01;23.00;46.50
27188;DHT22;14708;50.872;5.306;2023-12-20T14:48:26;23.00;46.60
27188;DHT22;14708;50.872;5.306;2023-12-20T14:50:53;23.00;45.90
27188;DHT22;14708;50.872;5.306;2023-12-20T14:53:19;23.00;46.00
27188;DHT22;14708;50.872;5.306;2023-12-20T14:55:45;23.00;46.20
27188;DHT22;14708;50.872;5.306;2023-12-20T14:58:12;23.00;46.40
27188;DHT22;14708;50.872;5.306;2023-12-20T15:00:38;23.00;46.20
27188;DHT22;14708;50.872;5.306;2023-12-20T15:03:04;23.00;46.10
27188;DHT22;14708;50.872;5.306;2023-12-20T15:05:31;22.90;46.20
27188;DHT22;14708;50.872;5.306;2023-12-20T15:07:57;22.90;46.40
27188;DHT22;14708;50.872;5.306;2023-12-20T15:10:23;22.90;46.50
27188;DHT22;14708;50.872;5.306;2023-12-20T15:12:48;22.90;46.40
27188;DHT22;14708;50.872;5.306;2023-12-20T15:15:14;22.90;46.70
27188;DHT22;14708;50.872;5.306;2023-12-20T15:17:40;22.90;45.90
27188;DHT22;14708;50.872;5.306;2023-12-20T15:20:06;22.90;46.00
27188;DHT22;14708;50.872;5.306;2023-12-20T15:22:32;22.90;46.00
27188;DHT22;14708;50.872;5.306;2023-12-20T15:25:00;22.90;46.40
27188;DHT22;14708;50.872;5.306;2023-12-20T15:27:27;22.90;46.60
27188;DHT22;14708;50.872;5.306;2023-12-20T15:29:52;22.90;46.80
27188;DHT22;14708;50.872;5.306;2023-12-20T15:32:18;23.00;47.30
27188;DHT22;14708;50.872;5.306;2023-12-20T15:34:47;23.00;47.60